sensor_id;sensor_type;location;lat;lon;timestamp;pressure;altitude;pressure_sealevel;temperature;humidity
21781;BME280;52576;53.614;9.894;2023-07-02T00:00:42;100042.66;;;14.47;84.55
21781;BME280;52576;53.614;9.894;2023-07-02T00:02:45;100041.81;;;14.46;84.99
21781;BME280;52576;53.614;9.894;2023-07-02T00:04:48;100041.13;;;14.44;85.09
21781;BME280;52576;53.614;9.894;2023-07-02T00:06:51;100035.16;;;14.42;84.87
21781;BME280;52576;53.614;9.894;2023-07-02T00:08:54;100034.44;;;14.40;85.15
21781;BME280;52576;53.614;9.894;2023-07-02T00:10:57;100032.09;;;14.37;85.21
21781;BME280;52576;53.614;9.894;2023-07-02T00:13:00;100035.69;;;14.36;85.15
21781;BME280;52576;53.614;9.894;2023-07-02T00:15:06;100034.03;;;14.35;85.61
21781;BME280;52576;53.614;9.894;2023-07-02T00:17:09;100035.84;;;14.35;85.38
21781;BME280;52576;53.614;9.894;2023-07-02T00:19:14;100034.03;;;14.35;85.64
21781;BME280;52576;53.614;9.894;2023-07-02T00:21:18;100034.03;;;14.35;85.82
21781;BME280;52576;53.614;9.894;2023-07-02T00:23:21;100034.72;;;14.37;85.67
21781;BME280;52576;53.614;9.894;2023-07-02T00:25:24;100035.41;;;14.39;85.97
21781;BME280;52576;53.614;9.894;2023-07-02T00:27:27;100029.88;;;14.42;85.76
21781;BME280;52576;53.614;9.894;2023-07-02T00:29:30;100033.22;;;14.44;85.94
21781;BME280;52576;53.614;9.894;2023-07-02T00:31:34;100027.50;;;14.49;85.89
21781;BME280;52576;53.614;9.894;2023-07-02T00:33:38;100029.03;;;14.51;85.84
21781;BME280;52576;53.614;9.894;2023-07-02T00:35:41;100032.34;;;14.53;85.62
21781;BME280;52576;53.614;9.894;2023-07-02T00:37:44;100032.03;;;14.56;85.69
21781;BME280;52576;53.614;9.894;2023-07-02T00:39:47;100030.09;;;14.58;85.69
21781;BME280;52576;53.614;9.894;2023-07-02T00:41:50;100029.78;;;14.62;85.67
21781;BME280;52576;53.614;9.894;2023-07-02T00:43:53;100026.19;;;14.63;85.72
21781;BME280;52576;53.614;9.894;2023-07-02T00:45:57;100025.91;;;14.66;85.33
21781;BME280;52576;53.614;9.894;2023-07-02T00:48:01;100023.94;;;14.68;85.17
21781;BME280;52576;53.614;9.894;2023-07-02T00:50:05;100022.97;;;14.69;85.32
21781;BME280;52576;53.614;9.894;2023-07-02T00:52:11;100031.56;;;14.71;85.11
21781;BME280;52576;53.614;9.894;2023-07-02T00:54:14;100033.91;;;14.74;85.26
21781;BME280;52576;53.614;9.894;2023-07-02T00:56:18;100018.91;;;14.74;84.73
21781;BME280;52576;53.614;9.894;2023-07-02T00:58:21;100021.41;;;14.76;84.77
21781;BME280;52576;53.614;9.894;2023-07-02T01:00:24;100019.47;;;14.78;84.55
21781;BME280;52576;53.614;9.894;2023-07-02T01:02:27;100029.72;;;14.81;84.78
21781;BME280;52576;53.614;9.894;2023-07-02T01:04:33;100024.44;;;14.81;84.63
21781;BME280;52576;53.614;9.894;2023-07-02T01:06:37;100029.53;;;14.82;84.53
21781;BME280;52576;53.614;9.894;2023-07-02T01:08:43;100027.72;;;14.83;84.76
21781;BME280;52576;53.614;9.894;2023-07-02T01:10:46;100027.72;;;14.83;84.70
21781;BME280;52576;53.614;9.894;2023-07-02T01:12:50;100026.91;;;14.82;84.48
21781;BME280;52576;53.614;9.894;2023-07-02T01:14:56;100020.78;;;14.82;84.20
21781;BME280;52576;53.614;9.894;2023-07-02T01:17:01;100033.00;;;14.83;84.21
21781;BME280;52576;53.614;9.894;2023-07-02T01:19:18;100033.97;;;14.82;84.23
21781;BME280;52576;53.614;9.894;2023-07-02T01:21:24;100036.63;;;14.82;84.25
21781;BME280;52576;53.614;9.894;2023-07-02T01:23:28;100036.63;;;14.82;84.22
21781;BME280;52576;53.614;9.894;2023-07-02T01:25:31;100028.06;;;14.80;84.51
21781;BME280;52576;53.614;9.894;2023-07-02T01:27:39;100032.34;;;14.81;84.42
21781;BME280;52576;53.614;9.894;2023-07-02T01:29:43;100022.78;;;14.80;84.32
21781;BME280;52576;53.614;9.894;2023-07-02T01:31:48;100016.69;;;14.79;84.28
21781;BME280;52576;53.614;9.894;2023-07-02T01:33:51;100010.56;;;14.79;84.45
21781;BME280;52576;53.614;9.894;2023-07-02T01:35:55;100021.13;;;14.79;84.73
21781;BME280;52576;53.614;9.894;2023-07-02T01:38:00;100022.78;;;14.80;84.32
21781;BME280;52576;53.614;9.894;2023-07-02T01:40:03;100020.78;;;14.82;84.23
21781;BME280;52576;53.614;9.894;2023-07-02T01:42:09;100018.00;;;14.83;84.23
21781;BME280;52576;53.614;9.894;2023-07-02T01:44:12;100018.00;;;14.83;84.16
21781;BME280;52576;53.614;9.894;2023-07-02T01:46:15;100012.59;;;14.85;84.40
21781;BME280;52576;53.614;9.894;2023-07-02T01:48:19;100016.19;;;14.84;84.47
21781;BME280;52576;53.614;9.894;2023-07-02T01:50:22;100025.78;;;14.85;84.33
21781;BME280;52576;53.614;9.894;2023-07-02T01:52:26;100024.13;;;14.84;84.20
21781;BME280;52576;53.614;9.894;2023-07-02T01:54:33;100024.13;;;14.84;84.25
21781;BME280;52576;53.614;9.894;2023-07-02T01:56:36;100032.19;;;14.82;84.01
21781;BME280;52576;53.614;9.894;2023-07-02T01:58:39;100019.97;;;14.81;84.38
21781;BME280;52576;53.614;9.894;2023-07-02T02:00:42;100015.84;;;14.79;84.17
21781;BME280;52576;53.614;9.894;2023-07-02T02:02:45;100012.50;;;14.77;84.17
21781;BME280;52576;53.614;9.894;2023-07-02T02:04:49;100017.09;;;14.75;84.16
21781;BME280;52576;53.614;9.894;2023-07-02T02:06:53;100018.22;;;14.72;84.55
21781;BME280;52576;53.614;9.894;2023-07-02T02:08:57;100022.00;;;14.70;84.41
21781;BME280;52576;53.614;9.894;2023-07-02T02:11:02;100021.31;;;14.68;84.52
21781;BME280;52576;53.614;9.894;2023-07-02T02:13:05;100024.09;;;14.66;84.56
21781;BME280;52576;53.614;9.894;2023-07-02T02:15:09;100018.97;;;14.65;84.58
21781;BME280;52576;53.614;9.894;2023-07-02T02:17:15;100018.28;;;14.63;84.32
21781;BME280;52576;53.614;9.894;2023-07-02T02:19:18;100013.13;;;14.61;84.32
21781;BME280;52576;53.614;9.894;2023-07-02T02:21:21;100021.19;;;14.59;84.32
21781;BME280;52576;53.614;9.894;2023-07-02T02:23:24;100029.25;;;14.58;84.70
21781;BME280;52576;53.614;9.894;2023-07-02T02:25:27;100020.50;;;14.57;84.64
21781;BME280;52576;53.614;9.894;2023-07-02T02:27:32;100018.19;;;14.54;84.39
21781;BME280;52576;53.614;9.894;2023-07-02T02:29:36;100019.16;;;14.53;84.43
21781;BME280;52576;53.614;9.894;2023-07-02T02:31:39;100021.13;;;14.51;84.77
21781;BME280;52576;53.614;9.894;2023-07-02T02:33:43;100024.72;;;14.50;84.73
21781;BME280;52576;53.614;9.894;2023-07-02T02:35:46;100025.69;;;14.49;84.72
21781;BME280;52576;53.614;9.894;2023-07-02T02:37:50;100025.84;;;14.48;84.61
21781;BME280;52576;53.614;9.894;2023-07-02T02:39:53;100030.28;;;14.47;84.70
21781;BME280;52576;53.614;9.894;2023-07-02T02:42:00;100031.25;;;14.46;84.44
21781;BME280;52576;53.614;9.894;2023-07-02T02:44:04;100027.94;;;14.44;84.60
21781;BME280;52576;53.614;9.894;2023-07-02T02:46:08;100037.81;;;14.42;84.71
21781;BME280;52576;53.614;9.894;2023-07-02T02:48:11;100035.31;;;14.41;84.83
21781;BME280;52576;53.614;9.894;2023-07-02T02:50:14;100039.03;;;14.38;84.71
21781;BME280;52576;53.614;9.894;2023-07-02T02:52:17;100036.38;;;14.38;84.80
21781;BME280;52576;53.614;9.894;2023-07-02T02:54:20;100040.97;;;14.36;85.01
21781;BME280;52576;53.614;9.894;2023-07-02T02:56:23;100032.38;;;14.34;84.91
21781;BME280;52576;53.614;9.894;2023-07-02T02:58:26;100030.72;;;14.33;84.66
21781;BME280;52576;53.614;9.894;2023-07-02T03:00:31;100037.94;;;14.31;84.81
21781;BME280;52576;53.614;9.894;2023-07-02T03:02:34;100040.72;;;14.30;85.12
21781;BME280;52576;53.614;9.894;2023-07-02T03:04:37;100036.59;;;14.27;84.70
21781;BME280;52576;53.614;9.894;2023-07-02T03:06:41;100034.94;;;14.26;85.23
21781;BME280;52576;53.614;9.894;2023-07-02T03:08:44;100029.94;;;14.23;84.88
21781;BME280;52576;53.614;9.894;2023-07-02T03:10:47;100036.19;;;14.22;85.05
21781;BME280;52576;53.614;9.894;2023-07-02T03:12:51;100034.53;;;14.21;85.17
21781;BME280;52576;53.614;9.894;2023-07-02T03:14:54;100034.66;;;14.19;85.09
21781;BME280;52576;53.614;9.894;2023-07-02T03:16:58;100035.50;;;14.20;85.33
21781;BME280;52576;53.614;9.894;2023-07-02T03:19:02;100044.38;;;14.19;85.07
21781;BME280;52576;53.614;9.894;2023-07-02T03:21:05;100038.25;;;14.18;85.40
21781;BME280;52576;53.614;9.894;2023-07-02T03:23:08;100030.50;;;14.17;85.32
21781;BME280;52576;53.614;9.894;2023-07-02T03:25:11;100037.72;;;14.15;85.12
21781;BME280;52576;53.614;9.894;2023-07-02T03:27:14;100035.09;;;14.15;85.09
21781;BME280;52576;53.614;9.894;2023-07-02T03:29:17;100033.41;;;14.14;85.25
21781;BME280;52576;53.614;9.894;2023-07-02T03:31:22;100036.88;;;14.14;84.91
21781;BME280;52576;53.614;9.894;2023-07-02T03:33:26;100036.88;;;14.14;85.31
21781;BME280;52576;53.614;9.894;2023-07-02T03:35:29;100030.78;;;14.14;85.22
21781;BME280;52576;53.614;9.894;2023-07-02T03:37:32;100034.41;;;14.13;85.18
21781;BME280;52576;53.614;9.894;2023-07-02T03:39:36;100031.75;;;14.13;84.85
21781;BME280;52576;53.614;9.894;2023-07-02T03:41:39;100029.13;;;14.13;84.83
21781;BME280;52576;53.614;9.894;2023-07-02T03:43:42;100032.59;;;14.13;84.95
21781;BME280;52576;53.614;9.894;2023-07-02T03:45:45;100036.88;;;14.14;84.73
21781;BME280;52576;53.614;9.894;2023-07-02T03:47:48;100047.44;;;14.14;84.51
21781;BME280;52576;53.614;9.894;2023-07-02T03:49:52;100044.66;;;14.16;84.42
21781;BME280;52576;53.614;9.894;2023-07-02T03:51:55;100030.50;;;14.17;84.44
21781;BME280;52576;53.614;9.894;2023-07-02T03:53:58;100039.38;;;14.16;84.28
21781;BME280;52576;53.614;9.894;2023-07-02T03:56:01;100037.44;;;14.18;83.89
21781;BME280;52576;53.614;9.894;2023-07-02T03:58:05;100034.66;;;14.19;83.66
21781;BME280;52576;53.614;9.894;2023-07-02T04:00:08;100041.59;;;14.20;83.44
21781;BME280;52576;53.614;9.894;2023-07-02T04:02:15;100049.34;;;14.22;83.34
21781;BME280;52576;53.614;9.894;2023-07-02T04:04:19;100048.38;;;14.23;83.47
21781;BME280;52576;53.614;9.894;2023-07-02T04:06:23;100055.31;;;14.24;83.48
21781;BME280;52576;53.614;9.894;2023-07-02T04:08:26;100056.97;;;14.25;82.99
21781;BME280;52576;53.614;9.894;2023-07-02T04:10:30;100060.31;;;14.27;82.89
21781;BME280;52576;53.614;9.894;2023-07-02T04:12:33;100059.34;;;14.28;82.93
21781;BME280;52576;53.614;9.894;2023-07-02T04:14:36;100065.44;;;14.29;82.71
21781;BME280;52576;53.614;9.894;2023-07-02T04:16:39;100061.00;;;14.29;82.96
21781;BME280;52576;53.614;9.894;2023-07-02T04:18:42;100069.56;;;14.31;82.65
21781;BME280;52576;53.614;9.894;2023-07-02T04:20:45;100069.56;;;14.31;82.07
21781;BME280;52576;53.614;9.894;2023-07-02T04:22:50;100067.63;;;14.33;82.31
21781;BME280;52576;53.614;9.894;2023-07-02T04:24:53;100066.66;;;14.34;82.04
21781;BME280;52576;53.614;9.894;2023-07-02T04:27:00;100073.44;;;14.37;81.68
21781;BME280;52576;53.614;9.894;2023-07-02T04:29:23;100074.28;;;14.37;81.64
21781;BME280;52576;53.614;9.894;2023-07-02T04:31:26;100064.31;;;14.41;81.41
21781;BME280;52576;53.614;9.894;2023-07-02T04:33:29;100077.34;;;14.42;81.48
21781;BME280;52576;53.614;9.894;2023-07-02T04:35:37;100070.13;;;14.44;81.57
21781;BME280;52576;53.614;9.894;2023-07-02T04:37:40;100066.50;;;14.45;81.02
21781;BME280;52576;53.614;9.894;2023-07-02T04:39:45;100067.22;;;14.47;80.92
21781;BME280;52576;53.614;9.894;2023-07-02T04:41:48;100070.66;;;14.48;80.87
21781;BME280;52576;53.614;9.894;2023-07-02T04:43:54;100065.25;;;14.49;80.73
21781;BME280;52576;53.614;9.894;2023-07-02T04:45:57;100078.16;;;14.52;80.41
21781;BME280;52576;53.614;9.894;2023-07-02T04:48:00;100079.81;;;14.53;80.72
21781;BME280;52576;53.614;9.894;2023-07-02T04:50:04;100077.84;;;14.55;80.03
21781;BME280;52576;53.614;9.894;2023-07-02T04:52:07;100077.69;;;14.57;80.19
21781;BME280;52576;53.614;9.894;2023-07-02T04:54:10;100071.44;;;14.58;80.42
21781;BME280;52576;53.614;9.894;2023-07-02T04:56:15;100064.22;;;14.60;80.00
21781;BME280;52576;53.614;9.894;2023-07-02T04:58:18;100072.00;;;14.62;79.63
21781;BME280;52576;53.614;9.894;2023-07-02T05:00:21;100070.03;;;14.64;79.44
21781;BME280;52576;53.614;9.894;2023-07-02T05:02:24;100077.81;;;14.65;79.82
21781;BME280;52576;53.614;9.894;2023-07-02T05:04:27;100078.34;;;14.69;79.23
21781;BME280;52576;53.614;9.894;2023-07-02T05:06:30;100076.41;;;14.71;78.80
21781;BME280;52576;53.614;9.894;2023-07-02T05:08:33;100082.38;;;14.73;79.14
21781;BME280;52576;53.614;9.894;2023-07-02T05:10:38;100077.78;;;14.75;78.89
21781;BME280;52576;53.614;9.894;2023-07-02T05:12:42;100070.56;;;14.77;78.30
21781;BME280;52576;53.614;9.894;2023-07-02T05:14:46;100073.88;;;14.79;78.29
21781;BME280;52576;53.614;9.894;2023-07-02T05:17:10;100075.22;;;14.83;78.10
21781;BME280;52576;53.614;9.894;2023-07-02T05:19:13;100078.53;;;14.85;78.21
21781;BME280;52576;53.614;9.894;2023-07-02T05:21:17;100072.16;;;14.87;78.00
21781;BME280;52576;53.614;9.894;2023-07-02T05:23:20;100070.06;;;14.91;77.60
21781;BME280;52576;53.614;9.894;2023-07-02T05:25:24;100076.00;;;14.93;77.56
21781;BME280;52576;53.614;9.894;2023-07-02T05:27:27;100071.28;;;14.97;77.34
21781;BME280;52576;53.614;9.894;2023-07-02T05:29:31;100071.13;;;14.98;77.21
21781;BME280;52576;53.614;9.894;2023-07-02T05:31:34;100081.41;;;15.01;77.21
21781;BME280;52576;53.614;9.894;2023-07-02T05:33:38;100082.09;;;15.03;76.75
21781;BME280;52576;53.614;9.894;2023-07-02T05:35:41;100074.84;;;15.05;76.41
21781;BME280;52576;53.614;9.894;2023-07-02T05:37:44;100078.97;;;15.08;76.31
21781;BME280;52576;53.614;9.894;2023-07-02T05:39:48;100084.94;;;15.10;76.28
21781;BME280;52576;53.614;9.894;2023-07-02T05:41:51;100082.00;;;15.13;76.30
21781;BME280;52576;53.614;9.894;2023-07-02T05:43:54;100086.16;;;15.15;75.91
21781;BME280;52576;53.614;9.894;2023-07-02T05:45:59;100091.16;;;15.18;75.90
21781;BME280;52576;53.614;9.894;2023-07-02T05:48:03;100075.00;;;15.21;75.29
21781;BME280;52576;53.614;9.894;2023-07-02T05:50:07;100085.28;;;15.24;75.46
21781;BME280;52576;53.614;9.894;2023-07-02T05:52:11;100078.03;;;15.26;75.43
21781;BME280;52576;53.614;9.894;2023-07-02T05:54:14;100086.50;;;15.30;75.00
21781;BME280;52576;53.614;9.894;2023-07-02T05:56:17;100082.56;;;15.34;75.33
21781;BME280;52576;53.614;9.894;2023-07-02T05:58:20;100081.28;;;15.38;74.95
21781;BME280;52576;53.614;9.894;2023-07-02T06:00:39;100088.75;;;15.43;74.60
21781;BME280;52576;53.614;9.894;2023-07-02T06:02:46;100082.19;;;15.47;74.28
21781;BME280;52576;53.614;9.894;2023-07-02T06:04:49;100086.19;;;15.51;74.08
21781;BME280;52576;53.614;9.894;2023-07-02T06:06:53;100091.19;;;15.54;74.08
21781;BME280;52576;53.614;9.894;2023-07-02T06:08:56;100094.25;;;15.59;74.18
21781;BME280;52576;53.614;9.894;2023-07-02T06:10:59;100085.84;;;15.64;74.05
21781;BME280;52576;53.614;9.894;2023-07-02T06:13:02;100081.91;;;15.68;73.41
21781;BME280;52576;53.614;9.894;2023-07-02T06:15:06;100087.59;;;15.73;73.92
21781;BME280;52576;53.614;9.894;2023-07-02T06:17:09;100085.31;;;15.78;73.28
21781;BME280;52576;53.614;9.894;2023-07-02T06:19:13;100084.88;;;15.82;73.31
21781;BME280;52576;53.614;9.894;2023-07-02T06:21:16;100076.47;;;15.87;73.49
21781;BME280;52576;53.614;9.894;2023-07-02T06:23:21;100086.44;;;15.93;73.28
21781;BME280;52576;53.614;9.894;2023-07-02T06:25:25;100084.16;;;15.98;72.76
21781;BME280;52576;53.614;9.894;2023-07-02T06:27:28;100094.28;;;16.03;71.98
21781;BME280;52576;53.614;9.894;2023-07-02T06:29:31;100087.69;;;16.07;71.45
21781;BME280;52576;53.614;9.894;2023-07-02T06:31:34;100092.69;;;16.10;70.99
21781;BME280;52576;53.614;9.894;2023-07-02T06:33:39;100094.00;;;16.14;70.98
21781;BME280;52576;53.614;9.894;2023-07-02T06:35:43;100087.44;;;16.18;70.96
21781;BME280;52576;53.614;9.894;2023-07-02T06:37:47;100098.38;;;16.23;70.58
21781;BME280;52576;53.614;9.894;2023-07-02T06:39:50;100109.47;;;16.26;70.46
21781;BME280;52576;53.614;9.894;2023-07-02T06:41:53;100102.75;;;16.32;70.09
21781;BME280;52576;53.614;9.894;2023-07-02T06:44:02;100100.44;;;16.37;69.99
21781;BME280;52576;53.614;9.894;2023-07-02T06:46:05;100119.84;;;16.46;69.08
21781;BME280;52576;53.614;9.894;2023-07-02T06:48:09;100127.47;;;16.49;69.12
21781;BME280;52576;53.614;9.894;2023-07-02T06:50:12;100120.06;;;16.52;68.85
21781;BME280;52576;53.614;9.894;2023-07-02T06:52:16;100121.09;;;16.59;69.04
21781;BME280;52576;53.614;9.894;2023-07-02T06:54:19;100126.44;;;16.68;68.99
21781;BME280;52576;53.614;9.894;2023-07-02T06:56:22;100126.81;;;16.73;68.27
21781;BME280;52576;53.614;9.894;2023-07-02T06:58:25;100122.88;;;16.77;68.35
21781;BME280;52576;53.614;9.894;2023-07-02T07:00:31;100129.50;;;16.81;68.26
21781;BME280;52576;53.614;9.894;2023-07-02T07:02:34;100136.31;;;16.83;67.61
21781;BME280;52576;53.614;9.894;2023-07-02T07:04:37;100147.56;;;16.85;67.95
21781;BME280;52576;53.614;9.894;2023-07-02T07:06:40;100142.78;;;16.89;68.39
21781;BME280;52576;53.614;9.894;2023-07-02T07:08:45;100145.75;;;16.94;67.68
21781;BME280;52576;53.614;9.894;2023-07-02T07:10:49;100141.81;;;16.98;67.57
21781;BME280;52576;53.614;9.894;2023-07-02T07:12:53;100138.19;;;16.99;67.14
21781;BME280;52576;53.614;9.894;2023-07-02T07:14:56;100154.38;;;16.96;66.82
21781;BME280;52576;53.614;9.894;2023-07-02T07:16:59;100151.38;;;16.91;66.78
21781;BME280;52576;53.614;9.894;2023-07-02T07:19:03;100159.81;;;16.86;67.13
21781;BME280;52576;53.614;9.894;2023-07-02T07:21:06;100148.72;;;16.83;67.05
21781;BME280;52576;53.614;9.894;2023-07-02T07:23:09;100155.97;;;16.81;66.80
21781;BME280;52576;53.614;9.894;2023-07-02T07:25:13;100159.59;;;16.80;66.00
21781;BME280;52576;53.614;9.894;2023-07-02T07:27:19;100158.78;;;16.79;66.03
21781;BME280;52576;53.614;9.894;2023-07-02T07:29:22;100161.56;;;16.78;65.85
21781;BME280;52576;53.614;9.894;2023-07-02T07:31:26;100165.22;;;16.77;65.34
21781;BME280;52576;53.614;9.894;2023-07-02T07:33:29;100165.22;;;16.77;65.38
21781;BME280;52576;53.614;9.894;2023-07-02T07:35:32;100166.34;;;16.74;64.96
21781;BME280;52576;53.614;9.894;2023-07-02T07:37:36;100171.47;;;16.76;64.70
21781;BME280;52576;53.614;9.894;2023-07-02T07:39:39;100161.72;;;16.76;64.43
21781;BME280;52576;53.614;9.894;2023-07-02T07:41:46;100173.00;;;16.78;64.46
21781;BME280;52576;53.614;9.894;2023-07-02T07:43:49;100162.94;;;16.82;63.71
21781;BME280;52576;53.614;9.894;2023-07-02T07:45:52;100164.59;;;16.83;63.43
21781;BME280;52576;53.614;9.894;2023-07-02T07:47:56;100165.41;;;16.83;63.14
21781;BME280;52576;53.614;9.894;2023-07-02T07:49:59;100167.91;;;16.85;62.95
21781;BME280;52576;53.614;9.894;2023-07-02T07:52:05;100158.66;;;16.89;63.10
21781;BME280;52576;53.614;9.894;2023-07-02T07:54:08;100171.25;;;16.95;62.46
21781;BME280;52576;53.614;9.894;2023-07-02T07:56:11;100162.84;;;17.00;62.51
21781;BME280;52576;53.614;9.894;2023-07-02T07:58:16;100171.81;;;17.07;62.25
21781;BME280;52576;53.614;9.894;2023-07-02T08:00:19;100172.03;;;17.13;61.36
21781;BME280;52576;53.614;9.894;2023-07-02T08:02:22;100168.03;;;17.17;61.67
21781;BME280;52576;53.614;9.894;2023-07-02T08:04:25;100179.66;;;17.24;61.56
21781;BME280;52576;53.614;9.894;2023-07-02T08:06:28;100173.72;;;17.30;61.02
21781;BME280;52576;53.614;9.894;2023-07-02T08:08:31;100181.72;;;17.39;60.69
21781;BME280;52576;53.614;9.894;2023-07-02T08:10:35;100168.16;;;17.50;59.57
21781;BME280;52576;53.614;9.894;2023-07-02T08:12:38;100179.44;;;17.60;58.72
21781;BME280;52576;53.614;9.894;2023-07-02T08:14:42;100172.19;;;17.70;57.74
21781;BME280;52576;53.614;9.894;2023-07-02T08:16:46;100176.19;;;17.74;56.70
21781;BME280;52576;53.614;9.894;2023-07-02T08:18:49;100164.75;;;17.74;56.56
21781;BME280;52576;53.614;9.894;2023-07-02T08:20:52;100154.47;;;17.71;56.52
21781;BME280;52576;53.614;9.894;2023-07-02T08:22:55;100169.22;;;17.65;56.82
21781;BME280;52576;53.614;9.894;2023-07-02T08:24:58;100173.16;;;17.61;57.14
21781;BME280;52576;53.614;9.894;2023-07-02T08:27:01;100184.25;;;17.56;56.78
21781;BME280;52576;53.614;9.894;2023-07-02T08:29:05;100171.47;;;17.52;56.15
21781;BME280;52576;53.614;9.894;2023-07-02T08:31:09;100188.69;;;17.48;56.36
21781;BME280;52576;53.614;9.894;2023-07-02T08:33:12;100184.69;;;17.44;56.03
21781;BME280;52576;53.614;9.894;2023-07-02T08:35:15;100197.25;;;17.42;55.92
21781;BME280;52576;53.614;9.894;2023-07-02T08:37:20;100201.25;;;17.38;56.05
21781;BME280;52576;53.614;9.894;2023-07-02T08:39:23;100202.25;;;17.37;55.85
21781;BME280;52576;53.614;9.894;2023-07-02T08:41:27;100184.53;;;17.37;55.59
21781;BME280;52576;53.614;9.894;2023-07-02T08:43:31;100182.72;;;17.38;55.27
21781;BME280;52576;53.614;9.894;2023-07-02T08:45:34;100174.75;;;17.46;55.72
21781;BME280;52576;53.614;9.894;2023-07-02T08:47:39;100165.53;;;17.58;55.57
21781;BME280;52576;53.614;9.894;2023-07-02T08:49:43;100174.03;;;17.70;54.91
21781;BME280;52576;53.614;9.894;2023-07-02T08:51:47;100177.19;;;17.81;54.67
21781;BME280;52576;53.614;9.894;2023-07-02T08:53:50;100174.56;;;17.97;54.58
21781;BME280;52576;53.614;9.894;2023-07-02T08:55:53;100182.88;;;18.11;54.45
21781;BME280;52576;53.614;9.894;2023-07-02T08:57:56;100206.06;;;18.25;54.31
21781;BME280;52576;53.614;9.894;2023-07-02T09:00:06;100194.81;;;18.39;52.95
21781;BME280;52576;53.614;9.894;2023-07-02T09:02:11;100197.59;;;18.46;51.79
21781;BME280;52576;53.614;9.894;2023-07-02T09:04:17;100200.91;;;18.48;51.46
21781;BME280;52576;53.614;9.894;2023-07-02T09:06:21;100202.06;;;18.45;51.41
21781;BME280;52576;53.614;9.894;2023-07-02T09:08:26;100220.03;;;18.43;51.51
21781;BME280;52576;53.614;9.894;2023-07-02T09:10:30;100222.66;;;18.35;51.33
21781;BME280;52576;53.614;9.894;2023-07-02T09:12:33;100225.63;;;18.24;51.51
21781;BME280;52576;53.614;9.894;2023-07-02T09:14:37;100242.38;;;18.08;51.81
21781;BME280;52576;53.614;9.894;2023-07-02T09:16:40;100271.31;;;17.93;53.03
21781;BME280;52576;53.614;9.894;2023-07-02T09:18:43;100281.91;;;17.77;53.72
21781;BME280;52576;53.614;9.894;2023-07-02T09:20:50;100281.47;;;17.56;54.44
21781;BME280;52576;53.614;9.894;2023-07-02T09:22:54;100285.03;;;17.39;54.84
21781;BME280;52576;53.614;9.894;2023-07-02T09:24:58;100278.94;;;17.20;55.96
21781;BME280;52576;53.614;9.894;2023-07-02T09:27:02;100289.75;;;17.01;57.36
21781;BME280;52576;53.614;9.894;2023-07-02T09:29:05;100282.34;;;16.79;59.29
21781;BME280;52576;53.614;9.894;2023-07-02T09:31:08;100270.53;;;16.55;60.24
21781;BME280;52576;53.614;9.894;2023-07-02T09:33:11;100266.41;;;16.35;61.64
21781;BME280;52576;53.614;9.894;2023-07-02T09:35:14;100267.75;;;16.21;62.25
21781;BME280;52576;53.614;9.894;2023-07-02T09:37:18;100275.44;;;16.15;63.58
21781;BME280;52576;53.614;9.894;2023-07-02T09:39:26;100270.47;;;16.12;64.05
21781;BME280;52576;53.614;9.894;2023-07-02T09:41:30;100258.25;;;16.11;63.89
21781;BME280;52576;53.614;9.894;2023-07-02T09:43:33;100257.91;;;16.14;64.96
21781;BME280;52576;53.614;9.894;2023-07-02T09:45:36;100263.31;;;16.22;65.04
21781;BME280;52576;53.614;9.894;2023-07-02T09:47:42;100260.28;;;16.35;65.03
21781;BME280;52576;53.614;9.894;2023-07-02T09:49:49;100250.66;;;16.51;63.83
21781;BME280;52576;53.614;9.894;2023-07-02T09:51:54;100248.84;;;16.70;64.00
21781;BME280;52576;53.614;9.894;2023-07-02T09:53:59;100239.09;;;16.96;62.02
21781;BME280;52576;53.614;9.894;2023-07-02T09:56:02;100252.78;;;17.17;60.75
21781;BME280;52576;53.614;9.894;2023-07-02T09:58:05;100254.53;;;17.35;59.71
21781;BME280;52576;53.614;9.894;2023-07-02T10:00:09;100261.88;;;17.49;58.82
21781;BME280;52576;53.614;9.894;2023-07-02T10:02:13;100253.66;;;17.60;58.04
21781;BME280;52576;53.614;9.894;2023-07-02T10:04:18;100262.00;;;17.73;58.05
21781;BME280;52576;53.614;9.894;2023-07-02T10:06:22;100246.31;;;17.88;57.24
21781;BME280;52576;53.614;9.894;2023-07-02T10:08:25;100248.00;;;18.05;56.81
21781;BME280;52576;53.614;9.894;2023-07-02T10:10:33;100255.47;;;18.26;56.13
21781;BME280;52576;53.614;9.894;2023-07-02T10:12:46;100257.63;;;18.47;55.05
21781;BME280;52576;53.614;9.894;2023-07-02T10:14:50;100261.00;;;18.65;54.44
21781;BME280;52576;53.614;9.894;2023-07-02T10:16:55;100282.06;;;18.75;53.37
21781;BME280;52576;53.614;9.894;2023-07-02T10:19:08;100272.44;;;18.74;52.31
21781;BME280;52576;53.614;9.894;2023-07-02T10:21:15;100274.78;;;18.69;52.33
21781;BME280;52576;53.614;9.894;2023-07-02T10:23:18;100272.47;;;18.66;52.65
21781;BME280;52576;53.614;9.894;2023-07-02T10:25:24;100276.44;;;18.61;52.51
21781;BME280;52576;53.614;9.894;2023-07-02T10:27:36;100269.25;;;18.54;52.36
21781;BME280;52576;53.614;9.894;2023-07-02T10:29:48;100269.25;;;18.54;52.94
21781;BME280;52576;53.614;9.894;2023-07-02T10:31:53;100265.97;;;18.60;52.81
21781;BME280;52576;53.614;9.894;2023-07-02T10:33:57;100275.78;;;18.68;52.85
21781;BME280;52576;53.614;9.894;2023-07-02T10:36:00;100289.34;;;18.73;52.38
21781;BME280;52576;53.614;9.894;2023-07-02T10:38:04;100277.44;;;18.69;52.30
21781;BME280;52576;53.614;9.894;2023-07-02T10:40:09;100277.44;;;18.60;52.81
21781;BME280;52576;53.614;9.894;2023-07-02T10:42:13;100296.31;;;18.57;53.36
21781;BME280;52576;53.614;9.894;2023-07-02T10:44:18;100281.75;;;18.61;53.01
21781;BME280;52576;53.614;9.894;2023-07-02T10:46:21;100287.22;;;18.68;52.64
21781;BME280;52576;53.614;9.894;2023-07-02T10:48:25;100285.38;;;18.77;52.47